sensor_id;sensor_type;location;lat;lon;timestamp;pressure;altitude;pressure_sealevel;temperature
34310;BMP280;61664;48.112;11.662;2023-10-19T00:00:41;94057.53;;;12.16
34310;BMP280;61664;48.112;11.662;2023-10-19T00:03:12;94065.78;;;12.18
34310;BMP280;61664;48.112;11.662;2023-10-19T00:05:40;94051.25;;;12.08
34310;BMP280;61664;48.112;11.662;2023-10-19T00:08:08;94045.69;;;12.06
34310;BMP280;61664;48.112;11.662;2023-10-19T00:10:54;94058.53;;;12.13
34310;BMP280;61664;48.112;11.662;2023-10-19T00:13:38;94056.06;;;12.15
34310;BMP280;61664;48.112;11.662;2023-10-19T00:16:09;94039.38;;;12.04
34310;BMP280;61664;48.112;11.662;2023-10-19T00:18:44;94056.06;;;12.15
34310;BMP280;61664;48.112;11.662;2023-10-19T00:21:16;94045.66;;;12.12
34310;BMP280;61664;48.112;11.662;2023-10-19T00:23:50;94041.56;;;12.05
34310;BMP280;61664;48.112;11.662;2023-10-19T00:26:18;94063.59;;;12.17
34310;BMP280;61664;48.112;11.662;2023-10-19T00:28:52;94053.38;;;12.15
34310;BMP280;61664;48.112;11.662;2023-10-19T00:31:28;94029.81;;;12.08
34310;BMP280;61664;48.112;11.662;2023-10-19T00:33:55;94043.91;;;12.14
34310;BMP280;61664;48.112;11.662;2023-10-19T00:36:24;94039.31;;;12.09
34310;BMP280;61664;48.112;11.662;2023-10-19T00:38:52;94061.88;;;12.19
34310;BMP280;61664;48.112;11.662;2023-10-19T00:41:26;94049.72;;;12.18
34310;BMP280;61664;48.112;11.662;2023-10-19T00:43:58;94028.88;;;12.11
34310;BMP280;61664;48.112;11.662;2023-10-19T00:46:39;94031.03;;;12.13
34310;BMP280;61664;48.112;11.662;2023-10-19T00:49:07;94019.34;;;12.10
34310;BMP280;61664;48.112;11.662;2023-10-19T00:51:38;94031.47;;;12.17
34310;BMP280;61664;48.112;11.662;2023-10-19T00:54:35;94021.25;;;12.15
34310;BMP280;61664;48.112;11.662;2023-10-19T00:57:04;94019.53;;;12.18
34310;BMP280;61664;48.112;11.662;2023-10-19T00:59:54;94012.91;;;12.25
34310;BMP280;61664;48.112;11.662;2023-10-19T01:02:22;93989.19;;;12.10
34310;BMP280;61664;48.112;11.662;2023-10-19T01:04:55;94014.59;;;12.28
34310;BMP280;61664;48.112;11.662;2023-10-19T01:07:29;94017.22;;;12.33
34310;BMP280;61664;48.112;11.662;2023-10-19T01:10:01;93984.25;;;12.19
34310;BMP280;61664;48.112;11.662;2023-10-19T01:12:32;94012.81;;;12.36
34310;BMP280;61664;48.112;11.662;2023-10-19T01:17:45;93990.66;;;12.35
34310;BMP280;61664;48.112;11.662;2023-10-19T01:20:18;93980.47;;;12.34
34310;BMP280;61664;48.112;11.662;2023-10-19T01:23:08;93992.47;;;12.27
34310;BMP280;61664;48.112;11.662;2023-10-19T01:25:47;93990.81;;;12.18
34310;BMP280;61664;48.112;11.662;2023-10-19T01:28:37;94009.53;;;12.24
34310;BMP280;61664;48.112;11.662;2023-10-19T01:31:20;94005.88;;;12.21
34310;BMP280;61664;48.112;11.662;2023-10-19T01:33:59;94012.97;;;12.19
34310;BMP280;61664;48.112;11.662;2023-10-19T01:36:33;94019.78;;;12.20
34310;BMP280;61664;48.112;11.662;2023-10-19T01:39:09;94015.13;;;12.20
34310;BMP280;61664;48.112;11.662;2023-10-19T01:41:38;94016.31;;;12.25
34310;BMP280;61664;48.112;11.662;2023-10-19T01:44:08;94015.59;;;12.25
34310;BMP280;61664;48.112;11.662;2023-10-19T01:46:40;93999.97;;;12.29
34310;BMP280;61664;48.112;11.662;2023-10-19T01:49:07;93989.81;;;12.21
34310;BMP280;61664;48.112;11.662;2023-10-19T01:51:35;93997.50;;;12.31
34310;BMP280;61664;48.112;11.662;2023-10-19T01:54:07;93997.25;;;12.34
34310;BMP280;61664;48.112;11.662;2023-10-19T01:56:35;93993.63;;;12.32
34310;BMP280;61664;48.112;11.662;2023-10-19T01:59:04;94015.66;;;12.43
34310;BMP280;61664;48.112;11.662;2023-10-19T02:01:31;94006.22;;;12.37
34310;BMP280;61664;48.112;11.662;2023-10-19T02:04:04;94004.44;;;12.45
34310;BMP280;61664;48.112;11.662;2023-10-19T02:06:34;94011.97;;;12.46
34310;BMP280;61664;48.112;11.662;2023-10-19T02:09:08;93997.44;;;12.42
34310;BMP280;61664;48.112;11.662;2023-10-19T02:11:36;93976.50;;;12.40
34310;BMP280;61664;48.112;11.662;2023-10-19T02:14:09;93981.28;;;12.47
34310;BMP280;61664;48.112;11.662;2023-10-19T02:16:59;93970.75;;;12.55
34310;BMP280;61664;48.112;11.662;2023-10-19T02:19:29;93991.66;;;12.56
34310;BMP280;61664;48.112;11.662;2023-10-19T02:22:01;93994.63;;;12.53
34310;BMP280;61664;48.112;11.662;2023-10-19T02:24:35;93991.97;;;12.53
34310;BMP280;61664;48.112;11.662;2023-10-19T02:27:03;93989.84;;;12.46
34310;BMP280;61664;48.112;11.662;2023-10-19T02:29:31;93992.22;;;12.49
34310;BMP280;61664;48.112;11.662;2023-10-19T02:31:58;93990.06;;;12.48
34310;BMP280;61664;48.112;11.662;2023-10-19T02:34:31;93994.88;;;12.55
34310;BMP280;61664;48.112;11.662;2023-10-19T02:36:58;93992.69;;;12.53
34310;BMP280;61664;48.112;11.662;2023-10-19T02:39:25;93984.69;;;12.48
34310;BMP280;61664;48.112;11.662;2023-10-19T02:41:55;93975.66;;;12.51
34310;BMP280;61664;48.112;11.662;2023-10-19T02:44:23;93992.84;;;12.61
34310;BMP280;61664;48.112;11.662;2023-10-19T02:46:55;93984.81;;;12.61
34310;BMP280;61664;48.112;11.662;2023-10-19T02:49:36;93985.75;;;12.64
34310;BMP280;61664;48.112;11.662;2023-10-19T02:52:06;93970.41;;;12.64
34310;BMP280;61664;48.112;11.662;2023-10-19T02:54:33;93981.75;;;12.70
34310;BMP280;61664;48.112;11.662;2023-10-19T02:57:01;93960.72;;;12.61
34310;BMP280;61664;48.112;11.662;2023-10-19T02:59:29;93964.03;;;12.67
34310;BMP280;61664;48.112;11.662;2023-10-19T03:01:58;93970.47;;;12.77
34310;BMP280;61664;48.112;11.662;2023-10-19T03:04:34;93960.78;;;12.74
34310;BMP280;61664;48.112;11.662;2023-10-19T03:07:06;93967.28;;;12.79
34310;BMP280;61664;48.112;11.662;2023-10-19T03:09:34;93972.59;;;12.84
34310;BMP280;61664;48.112;11.662;2023-10-19T03:12:04;93954.63;;;12.79
34310;BMP280;61664;48.112;11.662;2023-10-19T03:14:36;93957.56;;;12.81
34310;BMP280;61664;48.112;11.662;2023-10-19T03:17:04;93969.41;;;12.86
34310;BMP280;61664;48.112;11.662;2023-10-19T03:19:32;93967.97;;;12.85
34310;BMP280;61664;48.112;11.662;2023-10-19T03:22:01;93949.75;;;12.78
34310;BMP280;61664;48.112;11.662;2023-10-19T03:24:32;93957.03;;;12.83
34310;BMP280;61664;48.112;11.662;2023-10-19T03:27:04;93940.44;;;12.66
34310;BMP280;61664;48.112;11.662;2023-10-19T03:29:50;93943.41;;;12.62
34310;BMP280;61664;48.112;11.662;2023-10-19T03:32:23;93949.84;;;12.72
34310;BMP280;61664;48.112;11.662;2023-10-19T03:34:56;93931.44;;;12.63
34310;BMP280;61664;48.112;11.662;2023-10-19T03:37:26;93924.84;;;12.64
34310;BMP280;61664;48.112;11.662;2023-10-19T03:39:56;93937.41;;;12.75
34310;BMP280;61664;48.112;11.662;2023-10-19T03:42:25;93929.56;;;12.77
34310;BMP280;61664;48.112;11.662;2023-10-19T03:44:59;93936.84;;;12.82
34310;BMP280;61664;48.112;11.662;2023-10-19T03:47:29;93926.59;;;12.80
34310;BMP280;61664;48.112;11.662;2023-10-19T03:50:03;93913.44;;;12.82
34310;BMP280;61664;48.112;11.662;2023-10-19T03:52:37;93914.38;;;12.85
34310;BMP280;61664;48.112;11.662;2023-10-19T03:55:06;93913.19;;;12.80
34310;BMP280;61664;48.112;11.662;2023-10-19T03:57:38;93908.44;;;12.73
34310;BMP280;61664;48.112;11.662;2023-10-19T04:00:14;93902.63;;;12.69
34310;BMP280;61664;48.112;11.662;2023-10-19T04:02:45;93923.28;;;12.74
34310;BMP280;61664;48.112;11.662;2023-10-19T04:05:13;93923.78;;;12.73
34310;BMP280;61664;48.112;11.662;2023-10-19T04:07:49;93919.94;;;12.68
34310;BMP280;61664;48.112;11.662;2023-10-19T04:10:19;93912.50;;;12.61
34310;BMP280;61664;48.112;11.662;2023-10-19T04:13:08;93928.16;;;12.70
34310;BMP280;61664;48.112;11.662;2023-10-19T04:15:40;93917.69;;;12.72
34310;BMP280;61664;48.112;11.662;2023-10-19T04:18:08;93917.69;;;12.72
34310;BMP280;61664;48.112;11.662;2023-10-19T04:20:38;93914.06;;;12.70
34310;BMP280;61664;48.112;11.662;2023-10-19T04:23:17;93913.78;;;12.73
34310;BMP280;61664;48.112;11.662;2023-10-19T04:25:44;93907.94;;;12.75
34310;BMP280;61664;48.112;11.662;2023-10-19T04:28:15;93912.47;;;12.80
34310;BMP280;61664;48.112;11.662;2023-10-19T04:30:42;93907.34;;;12.82
34310;BMP280;61664;48.112;11.662;2023-10-19T04:33:09;93902.41;;;12.86
34310;BMP280;61664;48.112;11.662;2023-10-19T04:35:37;93906.97;;;12.91
34310;BMP280;61664;48.112;11.662;2023-10-19T04:38:05;93903.50;;;12.96
34310;BMP280;61664;48.112;11.662;2023-10-19T04:40:35;93907.09;;;12.99
34310;BMP280;61664;48.112;11.662;2023-10-19T04:43:03;93894.94;;;12.98
34310;BMP280;61664;48.112;11.662;2023-10-19T04:45:32;93893.19;;;13.00
34310;BMP280;61664;48.112;11.662;2023-10-19T04:47:59;93896.84;;;13.03
34310;BMP280;61664;48.112;11.662;2023-10-19T04:50:26;93886.75;;;12.90
34310;BMP280;61664;48.112;11.662;2023-10-19T04:52:53;93889.44;;;12.90
34310;BMP280;61664;48.112;11.662;2023-10-19T04:55:20;93897.84;;;13.00
34310;BMP280;61664;48.112;11.662;2023-10-19T04:57:47;93880.69;;;12.89
34310;BMP280;61664;48.112;11.662;2023-10-19T05:00:17;93899.31;;;13.01
34310;BMP280;61664;48.112;11.662;2023-10-19T05:02:44;93885.91;;;13.01
34310;BMP280;61664;48.112;11.662;2023-10-19T05:05:11;93882.97;;;12.99
34310;BMP280;61664;48.112;11.662;2023-10-19T05:07:40;93888.28;;;13.04
34310;BMP280;61664;48.112;11.662;2023-10-19T05:10:08;93895.63;;;13.17
34310;BMP280;61664;48.112;11.662;2023-10-19T05:12:35;93874.00;;;13.15
34310;BMP280;61664;48.112;11.662;2023-10-19T05:15:02;93875.63;;;13.18
34310;BMP280;61664;48.112;11.662;2023-10-19T05:17:32;93871.00;;;13.18
34310;BMP280;61664;48.112;11.662;2023-10-19T05:19:59;93879.41;;;13.28
34310;BMP280;61664;48.112;11.662;2023-10-19T05:22:26;93881.06;;;13.31
34310;BMP280;61664;48.112;11.662;2023-10-19T05:24:56;93877.63;;;13.31
34310;BMP280;61664;48.112;11.662;2023-10-19T05:27:23;93864.31;;;13.25
34310;BMP280;61664;48.112;11.662;2023-10-19T05:29:50;93864.03;;;13.29
34310;BMP280;61664;48.112;11.662;2023-10-19T05:32:18;93867.66;;;13.31
34310;BMP280;61664;48.112;11.662;2023-10-19T05:34:45;93856.06;;;13.23
34310;BMP280;61664;48.112;11.662;2023-10-19T05:37:12;93880.13;;;13.29
34310;BMP280;61664;48.112;11.662;2023-10-19T05:39:39;93895.09;;;13.37
34310;BMP280;61664;48.112;11.662;2023-10-19T05:42:06;93878.16;;;13.29
34310;BMP280;61664;48.112;11.662;2023-10-19T05:44:33;93883.22;;;13.33
34310;BMP280;61664;48.112;11.662;2023-10-19T05:47:01;93880.41;;;13.25
34310;BMP280;61664;48.112;11.662;2023-10-19T05:49:29;93882.19;;;13.22
34310;BMP280;61664;48.112;11.662;2023-10-19T05:51:56;93868.41;;;13.13
34310;BMP280;61664;48.112;11.662;2023-10-19T05:54:23;93870.28;;;13.18
34310;BMP280;61664;48.112;11.662;2023-10-19T05:56:51;93862.44;;;13.20
34310;BMP280;61664;48.112;11.662;2023-10-19T05:59:20;93881.28;;;13.33
34310;BMP280;61664;48.112;11.662;2023-10-19T06:01:47;93876.44;;;13.32
34310;BMP280;61664;48.112;11.662;2023-10-19T06:04:15;93857.50;;;13.24
34310;BMP280;61664;48.112;11.662;2023-10-19T06:06:47;93870.91;;;13.24
34310;BMP280;61664;48.112;11.662;2023-10-19T06:09:15;93873.16;;;13.20
34310;BMP280;61664;48.112;11.662;2023-10-19T06:11:44;93866.97;;;13.12
34310;BMP280;61664;48.112;11.662;2023-10-19T06:14:11;93865.09;;;13.07
34310;BMP280;61664;48.112;11.662;2023-10-19T06:16:38;93866.31;;;13.06
34310;BMP280;61664;48.112;11.662;2023-10-19T06:19:05;93869.00;;;13.06
34310;BMP280;61664;48.112;11.662;2023-10-19T06:21:32;93867.38;;;13.03
34310;BMP280;61664;48.112;11.662;2023-10-19T06:24:01;93879.22;;;13.07
34310;BMP280;61664;48.112;11.662;2023-10-19T06:26:29;93880.44;;;13.06
34310;BMP280;61664;48.112;11.662;2023-10-19T06:28:57;93880.44;;;13.06
34310;BMP280;61664;48.112;11.662;2023-10-19T06:31:26;93881.69;;;13.05
34310;BMP280;61664;48.112;11.662;2023-10-19T06:33:55;93884.91;;;13.17
34310;BMP280;61664;48.112;11.662;2023-10-19T06:36:24;93880.84;;;13.29
34310;BMP280;61664;48.112;11.662;2023-10-19T06:38:51;93873.44;;;13.35
34310;BMP280;61664;48.112;11.662;2023-10-19T06:41:18;93878.63;;;13.46
34310;BMP280;61664;48.112;11.662;2023-10-19T06:43:45;93864.16;;;13.49
34310;BMP280;61664;48.112;11.662;2023-10-19T06:46:13;93866.69;;;13.60
34310;BMP280;61664;48.112;11.662;2023-10-19T06:48:41;93867.22;;;13.72
34310;BMP280;61664;48.112;11.662;2023-10-19T06:51:09;93853.91;;;13.67
34310;BMP280;61664;48.112;11.662;2023-10-19T06:53:36;93857.41;;;13.75
34310;BMP280;61664;48.112;11.662;2023-10-19T06:56:04;93855.88;;;13.79
34310;BMP280;61664;48.112;11.662;2023-10-19T06:58:31;93857.31;;;13.80
34310;BMP280;61664;48.112;11.662;2023-10-19T07:00:58;93850.19;;;13.83
34310;BMP280;61664;48.112;11.662;2023-10-19T07:03:32;93853.50;;;13.89
34310;BMP280;61664;48.112;11.662;2023-10-19T07:05:59;93842.88;;;13.83
34310;BMP280;61664;48.112;11.662;2023-10-19T07:08:34;93847.31;;;13.94
34310;BMP280;61664;48.112;11.662;2023-10-19T07:11:01;93843.38;;;13.95
34310;BMP280;61664;48.112;11.662;2023-10-19T07:13:28;93852.66;;;14.07
34310;BMP280;61664;48.112;11.662;2023-10-19T07:16:00;93839.88;;;14.13
34310;BMP280;61664;48.112;11.662;2023-10-19T07:18:27;93853.03;;;14.38
34310;BMP280;61664;48.112;11.662;2023-10-19T07:20:55;93859.72;;;14.57
34310;BMP280;61664;48.112;11.662;2023-10-19T07:23:30;93861.84;;;14.72
34310;BMP280;61664;48.112;11.662;2023-10-19T07:25:57;93857.16;;;14.86
34310;BMP280;61664;48.112;11.662;2023-10-19T07:28:27;93865.78;;;15.05
34310;BMP280;61664;48.112;11.662;2023-10-19T07:30:56;93840.78;;;14.97
34310;BMP280;61664;48.112;11.662;2023-10-19T07:33:23;93862.47;;;15.20
34310;BMP280;61664;48.112;11.662;2023-10-19T07:35:52;93872.47;;;15.32
34310;BMP280;61664;48.112;11.662;2023-10-19T07:38:22;93869.31;;;15.42
34310;BMP280;61664;48.112;11.662;2023-10-19T07:40:50;93865.22;;;15.48
34310;BMP280;61664;48.112;11.662;2023-10-19T07:43:21;93855.59;;;15.53
34310;BMP280;61664;48.112;11.662;2023-10-19T07:45:49;93866.13;;;15.71
34310;BMP280;61664;48.112;11.662;2023-10-19T07:48:16;93850.53;;;15.78
34310;BMP280;61664;48.112;11.662;2023-10-19T07:50:44;93854.78;;;15.94
34310;BMP280;61664;48.112;11.662;2023-10-19T07:53:11;93855.19;;;16.05
34310;BMP280;61664;48.112;11.662;2023-10-19T07:55:38;93849.13;;;16.20
34310;BMP280;61664;48.112;11.662;2023-10-19T07:58:06;93857.09;;;16.33
34310;BMP280;61664;48.112;11.662;2023-10-19T08:00:34;93849.56;;;16.39
34310;BMP280;61664;48.112;11.662;2023-10-19T08:03:03;93840.03;;;16.38
34310;BMP280;61664;48.112;11.662;2023-10-19T08:05:33;93850.19;;;16.53
34310;BMP280;61664;48.112;11.662;2023-10-19T08:08:03;93832.19;;;16.56
34310;BMP280;61664;48.112;11.662;2023-10-19T08:10:33;93836.00;;;16.68
34310;BMP280;61664;48.112;11.662;2023-10-19T08:13:01;93838.56;;;16.81
34310;BMP280;61664;48.112;11.662;2023-10-19T08:15:28;93830.66;;;16.91
34310;BMP280;61664;48.112;11.662;2023-10-19T08:17:57;93831.03;;;17.10
34310;BMP280;61664;48.112;11.662;2023-10-19T08:20:25;93819.88;;;17.21
34310;BMP280;61664;48.112;11.662;2023-10-19T08:23:00;93812.31;;;17.35
34310;BMP280;61664;48.112;11.662;2023-10-19T08:25:29;93815.50;;;17.56
34310;BMP280;61664;48.112;11.662;2023-10-19T08:28:16;93822.09;;;17.85
34310;BMP280;61664;48.112;11.662;2023-10-19T08:30:44;93821.16;;;17.98
34310;BMP280;61664;48.112;11.662;2023-10-19T08:33:24;93805.47;;;18.04
34310;BMP280;61664;48.112;11.662;2023-10-19T08:35:54;93807.38;;;18.19
34310;BMP280;61664;48.112;11.662;2023-10-19T08:38:22;93814.22;;;18.27
34310;BMP280;61664;48.112;11.662;2023-10-19T08:40:50;93814.16;;;18.35
34310;BMP280;61664;48.112;11.662;2023-10-19T08:43:18;93804.94;;;18.38
34310;BMP280;61664;48.112;11.662;2023-10-19T08:45:45;93800.97;;;18.39
34310;BMP280;61664;48.112;11.662;2023-10-19T08:48:12;93801.19;;;18.41
34310;BMP280;61664;48.112;11.662;2023-10-19T08:50:40;93804.91;;;18.46
34310;BMP280;61664;48.112;11.662;2023-10-19T08:53:10;93802.22;;;18.46
34310;BMP280;61664;48.112;11.662;2023-10-19T08:55:41;93814.75;;;18.58
34310;BMP280;61664;48.112;11.662;2023-10-19T08:58:17;93790.22;;;18.56
34310;BMP280;61664;48.112;11.662;2023-10-19T09:00:50;93803.13;;;18.73
34310;BMP280;61664;48.112;11.662;2023-10-19T09:03:24;93804.28;;;18.87
34310;BMP280;61664;48.112;11.662;2023-10-19T09:05:52;93804.38;;;18.97
34310;BMP280;61664;48.112;11.662;2023-10-19T09:08:19;93800.72;;;19.02
34310;BMP280;61664;48.112;11.662;2023-10-19T09:10:50;93804.25;;;19.12
34310;BMP280;61664;48.112;11.662;2023-10-19T09:13:21;93815.19;;;19.22
34310;BMP280;61664;48.112;11.662;2023-10-19T09:15:51;93796.56;;;19.26
34310;BMP280;61664;48.112;11.662;2023-10-19T09:18:24;93804.94;;;19.37
34310;BMP280;61664;48.112;11.662;2023-10-19T09:20:56;93802.16;;;19.45
34310;BMP280;61664;48.112;11.662;2023-10-19T09:23:30;93801.44;;;19.44
34310;BMP280;61664;48.112;11.662;2023-10-19T09:26:01;93787.97;;;19.37
34310;BMP280;61664;48.112;11.662;2023-10-19T09:28:37;93786.94;;;19.32
34310;BMP280;61664;48.112;11.662;2023-10-19T09:31:06;93801.84;;;19.41
34310;BMP280;61664;48.112;11.662;2023-10-19T09:33:41;93802.56;;;19.41
34310;BMP280;61664;48.112;11.662;2023-10-19T09:36:10;93799.84;;;19.41
34310;BMP280;61664;48.112;11.662;2023-10-19T09:38:50;93802.63;;;19.34
34310;BMP280;61664;48.112;11.662;2023-10-19T09:41:20;93805.00;;;19.30
34310;BMP280;61664;48.112;11.662;2023-10-19T09:43:50;93806.34;;;19.21
34310;BMP280;61664;48.112;11.662;2023-10-19T09:46:31;93814.69;;;19.16
34310;BMP280;61664;48.112;11.662;2023-10-19T09:48:59;93802.34;;;19.05
34310;BMP280;61664;48.112;11.662;2023-10-19T09:51:26;93783.53;;;19.07
34310;BMP280;61664;48.112;11.662;2023-10-19T09:54:22;93797.69;;;19.23
34310;BMP280;61664;48.112;11.662;2023-10-19T09:57:02;93783.53;;;19.32
34310;BMP280;61664;48.112;11.662;2023-10-19T09:59:40;93790.91;;;19.48
34310;BMP280;61664;48.112;11.662;2023-10-19T10:02:10;93796.50;;;19.68
34310;BMP280;61664;48.112;11.662;2023-10-19T10:04:42;93790.78;;;19.81
34310;BMP280;61664;48.112;11.662;2023-10-19T10:07:13;93789.28;;;19.97
34310;BMP280;61664;48.112;11.662;2023-10-19T10:09:44;93772.84;;;20.12
34310;BMP280;61664;48.112;11.662;2023-10-19T10:12:30;93782.75;;;20.27
34310;BMP280;61664;48.112;11.662;2023-10-19T10:15:03;93770.38;;;20.34
34310;BMP280;61664;48.112;11.662;2023-10-19T10:17:36;93765.25;;;20.38
34310;BMP280;61664;48.112;11.662;2023-10-19T10:22:45;93761.13;;;20.46
34310;BMP280;61664;48.112;11.662;2023-10-19T10:25:34;93752.28;;;20.46
34310;BMP280;61664;48.112;11.662;2023-10-19T10:28:03;93772.19;;;20.58
34310;BMP280;61664;48.112;11.662;2023-10-19T10:30:31;93774.06;;;20.65
34310;BMP280;61664;48.112;11.662;2023-10-19T10:32:58;93768.09;;;20.76
34310;BMP280;61664;48.112;11.662;2023-10-19T10:38:07;93769.91;;;21.10
34310;BMP280;61664;48.112;11.662;2023-10-19T10:40:46;93766.78;;;21.23
34310;BMP280;61664;48.112;11.662;2023-10-19T10:43:20;93756.34;;;21.20
34310;BMP280;61664;48.112;11.662;2023-10-19T10:45:48;93757.91;;;21.23
34310;BMP280;61664;48.112;11.662;2023-10-19T10:48:17;93751.66;;;21.20
34310;BMP280;61664;48.112;11.662;2023-10-19T10:50:46;93749.47;;;21.19
34310;BMP280;61664;48.112;11.662;2023-10-19T10:53:14;93760.91;;;21.27
34310;BMP280;61664;48.112;11.662;2023-10-19T10:55:45;93742.31;;;21.33
34310;BMP280;61664;48.112;11.662;2023-10-19T10:58:19;93737.91;;;21.47
34310;BMP280;61664;48.112;11.662;2023-10-19T11:00:46;93733.59;;;21.63
34310;BMP280;61664;48.112;11.662;2023-10-19T11:03:15;93732.84;;;21.92
34310;BMP280;61664;48.112;11.662;2023-10-19T11:05:43;93722.91;;;22.06
34310;BMP280;61664;48.112;11.662;2023-10-19T11:08:15;93734.38;;;22.35
34310;BMP280;61664;48.112;11.662;2023-10-19T11:10:48;93720.28;;;22.48
34310;BMP280;61664;48.112;11.662;2023-10-19T11:13:22;93723.41;;;22.54
34310;BMP280;61664;48.112;11.662;2023-10-19T11:15:54;93712.78;;;22.58
34310;BMP280;61664;48.112;11.662;2023-10-19T11:21:02;93739.28;;;22.89
34310;BMP280;61664;48.112;11.662;2023-10-19T11:23:46;93727.81;;;22.90
34310;BMP280;61664;48.112;11.662;2023-10-19T11:26:17;93720.72;;;22.97
34310;BMP280;61664;48.112;11.662;2023-10-19T11:28:44;93719.69;;;23.02
34310;BMP280;61664;48.112;11.662;2023-10-19T11:31:22;93715.06;;;23.04
34310;BMP280;61664;48.112;11.662;2023-10-19T11:33:51;93719.06;;;22.92
34310;BMP280;61664;48.112;11.662;2023-10-19T11:36:21;93720.28;;;22.79
34310;BMP280;61664;48.112;11.662;2023-10-19T11:38:52;93697.97;;;22.71
34310;BMP280;61664;48.112;11.662;2023-10-19T11:41:20;93683.44;;;22.57
34310;BMP280;61664;48.112;11.662;2023-10-19T11:43:49;93663.78;;;22.58
34310;BMP280;61664;48.112;11.662;2023-10-19T11:46:19;93661.25;;;22.60
34310;BMP280;61664;48.112;11.662;2023-10-19T11:48:49;93650.59;;;22.64
34310;BMP280;61664;48.112;11.662;2023-10-19T11:51:16;93637.66;;;22.53
34310;BMP280;61664;48.112;11.662;2023-10-19T11:53:43;93648.06;;;22.57
34310;BMP280;61664;48.112;11.662;2023-10-19T11:56:12;93654.38;;;22.59
34310;BMP280;61664;48.112;11.662;2023-10-19T11:58:40;93638.47;;;22.56
34310;BMP280;61664;48.112;11.662;2023-10-19T12:01:10;93639.53;;;22.51
34310;BMP280;61664;48.112;11.662;2023-10-19T12:03:41;93643.34;;;22.57
34310;BMP280;61664;48.112;11.662;2023-10-19T12:06:11;93621.44;;;22.55
34310;BMP280;61664;48.112;11.662;2023-10-19T12:08:39;93621.72;;;22.59
34310;BMP280;61664;48.112;11.662;2023-10-19T12:11:07;93613.28;;;22.55
34310;BMP280;61664;48.112;11.662;2023-10-19T12:13:46;93632.66;;;22.71
34310;BMP280;61664;48.112;11.662;2023-10-19T12:16:16;93636.00;;;22.81
34310;BMP280;61664;48.112;11.662;2023-10-19T12:18:44;93639.69;;;22.86
34310;BMP280;61664;48.112;11.662;2023-10-19T12:21:12;93634.13;;;22.84
34310;BMP280;61664;48.112;11.662;2023-10-19T12:23:40;93623.91;;;22.73
34310;BMP280;61664;48.112;11.662;2023-10-19T12:26:07;93630.53;;;22.70
34310;BMP280;61664;48.112;11.662;2023-10-19T12:28:42;93639.97;;;22.69
34310;BMP280;61664;48.112;11.662;2023-10-19T12:31:15;93616.00;;;22.55
34310;BMP280;61664;48.112;11.662;2023-10-19T12:33:45;93617.75;;;22.51
34310;BMP280;61664;48.112;11.662;2023-10-19T12:36:12;93623.25;;;22.62
34310;BMP280;61664;48.112;11.662;2023-10-19T12:38:55;93620.84;;;22.78
34310;BMP280;61664;48.112;11.662;2023-10-19T12:41:22;93611.50;;;23.02
34310;BMP280;61664;48.112;11.662;2023-10-19T12:43:50;93568.53;;;23.13
34310;BMP280;61664;48.112;11.662;2023-10-19T12:46:24;93589.22;;;23.51
34310;BMP280;61664;48.112;11.662;2023-10-19T12:48:52;93588.25;;;23.58
34310;BMP280;61664;48.112;11.662;2023-10-19T12:51:19;93596.28;;;23.56
34310;BMP280;61664;48.112;11.662;2023-10-19T12:53:54;93600.81;;;23.51
34310;BMP280;61664;48.112;11.662;2023-10-19T12:56:22;93589.09;;;23.48
34310;BMP280;61664;48.112;11.662;2023-10-19T12:58:55;93583.16;;;23.52
34310;BMP280;61664;48.112;11.662;2023-10-19T13:01:22;93573.81;;;23.55
34310;BMP280;61664;48.112;11.662;2023-10-19T13:03:50;93571.06;;;23.55
34310;BMP280;61664;48.112;11.662;2023-10-19T13:06:18;93569.53;;;23.52
34310;BMP280;61664;48.112;11.662;2023-10-19T13:08:46;93577.59;;;23.50
34310;BMP280;61664;48.112;11.662;2023-10-19T13:11:13;93563.69;;;23.34
34310;BMP280;61664;48.112;11.662;2023-10-19T13:13:45;93579.81;;;23.42
34310;BMP280;61664;48.112;11.662;2023-10-19T13:16:15;93571.50;;;23.28
34310;BMP280;61664;48.112;11.662;2023-10-19T13:18:42;93578.53;;;23.31
34310;BMP280;61664;48.112;11.662;2023-10-19T13:21:10;93575.53;;;23.27
34310;BMP280;61664;48.112;11.662;2023-10-19T13:23:42;93567.72;;;23.33
34310;BMP280;61664;48.112;11.662;2023-10-19T13:26:10;93581.13;;;23.41
34310;BMP280;61664;48.112;11.662;2023-10-19T13:28:44;93574.28;;;23.40
34310;BMP280;61664;48.112;11.662;2023-10-19T13:31:12;93590.72;;;23.42
34310;BMP280;61664;48.112;11.662;2023-10-19T13:33:42;93594.97;;;23.33
34310;BMP280;61664;48.112;11.662;2023-10-19T13:36:11;93579.56;;;23.26
34310;BMP280;61664;48.112;11.662;2023-10-19T13:38:39;93576.13;;;23.37
34310;BMP280;61664;48.112;11.662;2023-10-19T13:41:06;93580.44;;;23.40
34310;BMP280;61664;48.112;11.662;2023-10-19T13:43:40;93584.06;;;23.33
34310;BMP280;61664;48.112;11.662;2023-10-19T13:46:09;93571.03;;;23.20
34310;BMP280;61664;48.112;11.662;2023-10-19T13:48:36;93569.66;;;22.98
34310;BMP280;61664;48.112;11.662;2023-10-19T13:51:05;93572.63;;;22.90
34310;BMP280;61664;48.112;11.662;2023-10-19T13:53:42;93581.00;;;22.83
34310;BMP280;61664;48.112;11.662;2023-10-19T13:56:13;93589.13;;;22.71
34310;BMP280;61664;48.112;11.662;2023-10-19T13:58:41;93595.53;;;22.54
34310;BMP280;61664;48.112;11.662;2023-10-19T14:01:10;93573.78;;;22.33
34310;BMP280;61664;48.112;11.662;2023-10-19T14:03:39;93585.31;;;22.22
34310;BMP280;61664;48.112;11.662;2023-10-19T14:06:12;93594.94;;;22.13
34310;BMP280;61664;48.112;11.662;2023-10-19T14:08:40;93596.28;;;22.03
34310;BMP280;61664;48.112;11.662;2023-10-19T14:11:07;93608.88;;;21.98
34310;BMP280;61664;48.112;11.662;2023-10-19T14:13:35;93590.34;;;21.85
34310;BMP280;61664;48.112;11.662;2023-10-19T14:16:09;93601.22;;;21.85
34310;BMP280;61664;48.112;11.662;2023-10-19T14:18:36;93603.00;;;21.80
34310;BMP280;61664;48.112;11.662;2023-10-19T14:21:17;93593.44;;;21.70
34310;BMP280;61664;48.112;11.662;2023-10-19T14:24:07;93574.19;;;21.47
34310;BMP280;61664;48.112;11.662;2023-10-19T14:26:53;93552.69;;;21.29